Time;durP1;ratioP1;P1;durP2;ratioP2;P2;SDS_P1;SDS_P2;PMS_P1;PMS_P2;Temp;Humidity;BMP_temperature;BMP_pressure;BME280_temperature;BME280_humidity;BME280_pressure;Samples;Min_cycle;Max_cycle;Signal;HPM_P1;HPM_P2
2021/01/03 00:02:11;;;;;;;28.53;10.83;;;;;;;2.11;68.06;98997.63;119983;1154;104436;-71
2021/01/03 00:04:43;;;;;;;29.23;12.30;;;;;;;2.07;68.23;98989.00;119999;1153;104463;-71
2021/01/03 00:07:10;;;;;;;27.47;10.17;;;;;;;2.03;67.92;98985.66;119879;1153;104454;-71
2021/01/03 00:09:40;;;;;;;29.13;12.37;;;;;;;2.04;68.37;98986.50;119919;1153;104487;-71
2021/01/03 00:12:07;;;;;;;29.02;10.72;;;;;;;2.04;67.88;98986.50;119931;1153;104489;-72
2021/01/03 00:14:35;;;;;;;28.03;11.13;;;;;;;2.02;68.04;98972.61;121039;1153;104454;-72
2021/01/03 00:17:07;;;;;;;31.20;11.87;;;;;;;1.98;68.24;98984.14;119989;1153;104464;-73
2021/01/03 00:19:34;;;;;;;31.80;12.00;;;;;;;1.91;68.03;98971.25;120013;1153;104525;-71
2021/01/03 00:22:01;;;;;;;30.43;12.13;;;;;;;1.87;67.51;98974.91;119985;1153;104614;-71
2021/01/03 00:24:29;;;;;;;29.27;11.87;;;;;;;1.84;68.55;98975.02;120002;1153;104383;-70
2021/01/03 00:26:57;;;;;;;33.03;12.13;;;;;;;1.86;68.01;98977.57;120036;1153;104426;-71
2021/01/03 00:29:24;;;;;;;28.93;12.00;;;;;;;1.88;68.58;98978.37;120019;1153;104380;-71
2021/01/03 00:31:51;;;;;;;30.73;11.63;;;;;;;1.92;68.29;98980.84;119992;1154;104376;-71
2021/01/03 00:34:24;;;;;;;28.90;12.33;;;;;;;2.00;68.19;98984.94;120035;1153;104577;-70
2021/01/03 00:36:51;;;;;;;29.55;11.33;;;;;;;2.01;68.61;98986.64;120009;1153;104862;-71
2021/01/03 00:39:18;;;;;;;27.43;11.07;;;;;;;2.04;68.78;98982.12;119983;1153;104588;-71
2021/01/03 00:41:50;;;;;;;26.00;10.00;;;;;;;2.01;67.70;98986.64;120638;1153;104430;-71
2021/01/03 00:44:32;;;;;;;25.63;10.73;;;;;;;2.03;68.22;98990.06;121604;1152;102229;-72
2021/01/03 00:46:59;;;;;;;26.23;10.17;;;;;;;2.06;68.85;98977.66;120225;1153;104349;-72
2021/01/03 00:49:27;;;;;;;24.80;10.97;;;;;;;2.12;69.08;98981.80;119945;1152;104435;-72
2021/01/03 00:51:54;;;;;;;26.77;10.07;;;;;;;2.15;68.31;98980.85;119991;1153;104850;-72
2021/01/03 00:54:21;;;;;;;26.93;10.37;;;;;;;2.16;68.68;98975.52;121120;1153;102007;-72
2021/01/03 00:56:49;;;;;;;27.93;11.23;;;;;;;2.20;68.57;98979.73;120021;1153;104426;-73
2021/01/03 00:59:16;;;;;;;27.00;10.72;;;;;;;2.22;68.30;98974.45;120048;1152;104481;-71
2021/01/03 01:01:44;;;;;;;29.12;12.30;;;;;;;2.23;68.31;98963.03;121219;1153;103266;-73
2021/01/03 01:04:11;;;;;;;27.02;10.55;;;;;;;2.26;68.78;98962.05;120076;1152;104375;-72
2021/01/03 01:06:39;;;;;;;24.77;9.65;;;;;;;2.27;68.64;98969.00;120197;1153;104422;-72
2021/01/03 01:09:10;;;;;;;27.60;11.10;;;;;;;2.30;68.87;98963.63;120889;1154;104397;-72
2021/01/03 01:11:41;;;;;;;25.20;10.50;;;;;;;2.33;68.74;98958.26;120078;1153;104450;-73
2021/01/03 01:14:10;;;;;;;27.65;10.30;;;;;;;2.38;68.33;98953.68;120271;1153;104432;-72
2021/01/03 01:16:40;;;;;;;22.47;9.33;;;;;;;2.42;68.56;98949.14;120021;1153;104495;-73
2021/01/03 01:19:07;;;;;;;24.77;8.87;;;;;;;2.44;68.19;98957.81;120160;1152;104399;-73
2021/01/03 01:21:34;;;;;;;25.73;9.80;;;;;;;2.43;68.95;98958.73;119944;1153;104490;-69
2021/01/03 01:24:01;;;;;;;29.50;11.25;;;;;;;2.43;69.17;98956.10;119920;1153;104545;-71
2021/01/03 01:26:30;;;;;;;24.17;9.90;;;;;;;2.41;68.92;98953.56;119770;1153;104341;-72
2021/01/03 01:28:57;;;;;;;28.73;10.87;;;;;;;2.39;68.72;98952.77;119877;1152;104354;-72
2021/01/03 01:31:24;;;;;;;28.55;11.48;;;;;;;2.38;68.52;98951.89;120011;1152;104355;-75
2021/01/03 01:33:52;;;;;;;26.80;11.63;;;;;;;2.35;68.84;98952.02;119993;1154;104430;-71
2021/01/03 01:36:19;;;;;;;29.15;12.05;;;;;;;2.35;68.45;98949.39;119914;1153;104452;-72
2021/01/03 01:38:46;;;;;;;27.20;11.40;;;;;;;2.31;68.05;98949.59;119894;1153;105042;-72
2021/01/03 01:41:13;;;;;;;28.80;11.50;;;;;;;2.25;68.46;98942.80;119971;1153;104497;-70
2021/01/03 01:43:40;;;;;;;31.90;12.47;;;;;;;2.19;68.87;98940.45;119875;1153;104467;-71
2021/01/03 01:46:23;;;;;;;33.93;13.80;;;;;;;2.08;68.44;98938.23;119853;1151;104436;-72
2021/01/03 01:48:50;;;;;;;32.63;12.90;;;;;;;1.98;68.78;98931.67;119990;1153;104449;-72
2021/01/03 01:51:25;;;;;;;29.33;12.97;;;;;;;1.93;68.29;98940.57;119991;1153;104355;-71
2021/01/03 01:54:08;;;;;;;38.20;17.03;;;;;;;1.86;67.97;98936.48;119970;1152;104396;-72
2021/01/03 01:56:50;;;;;;;30.13;14.27;;;;;;;1.83;68.76;98926.10;119997;1153;104451;-74
2021/01/03 01:59:55;;;;;;;41.53;18.23;;;;;;;1.82;68.86;98929.64;120003;1153;104368;-68
2021/01/03 02:02:47;;;;;;;38.43;17.20;;;;;;;1.83;69.02;98926.10;120028;1153;104433;-69
2021/01/03 02:05:58;;;;;;;36.67;17.00;;;;;;;1.86;69.15;98922.48;119986;1153;104448;-70
2021/01/03 02:08:36;;;;;;;35.17;15.23;;;;;;;1.84;68.93;98921.70;119981;1153;104529;-70
2021/01/03 02:11:07;;;;;;;41.70;17.33;;;;;;;1.72;68.66;98933.52;119985;1154;104354;-73
2021/01/03 02:13:43;;;;;;;38.17;17.47;;;;;;;1.64;68.61;98926.80;120038;1153;104433;-73
2021/01/03 02:16:14;;;;;;;37.33;16.70;;;;;;;1.60;68.88;98919.13;119834;1152;104495;-73
2021/01/03 02:18:44;;;;;;;33.57;13.80;;;;;;;1.58;68.70;98921.82;119869;1153;104454;-71
2021/01/03 02:21:31;;;;;;;39.70;16.03;;;;;;;1.60;68.75;98919.13;119778;1153;104982;-72
2021/01/03 02:24:27;;;;;;;39.57;17.40;;;;;;;1.59;68.36;98915.66;119935;1153;104378;-72
2021/01/03 02:27:09;;;;;;;31.33;12.70;;;;;;;1.58;68.53;98928.81;119931;1153;104354;-72
2021/01/03 02:29:38;;;;;;;27.03;11.30;;;;;;;1.51;68.63;98930.83;119954;1153;104327;-72
2021/01/03 02:32:08;;;;;;;29.60;10.97;;;;;;;1.44;68.87;98932.80;120014;1153;104455;-72
2021/01/03 02:34:39;;;;;;;29.90;12.43;;;;;;;1.37;68.59;98928.73;120083;1153;104432;-72
2021/01/03 02:37:21;;;;;;;26.63;10.60;;;;;;;1.34;69.01;98934.92;119889;1152;104455;-71
2021/01/03 02:40:00;;;;;;;28.13;11.70;;;;;;;1.32;68.52;98934.13;119919;1153;104457;-71
2021/01/03 02:42:36;;;;;;;27.77;10.80;;;;;;;1.30;68.67;98922.00;119825;1151;104509;-71
2021/01/03 02:45:12;;;;;;;25.47;11.03;;;;;;;1.27;68.95;98917.70;121010;1152;103189;-70
2021/01/03 09:11:54;;;;;;;62.47;39.53;;;;;;;2.33;71.22;98875.09;119913;1112;104426;-71
2021/01/03 09:14:45;;;;;;;67.43;40.83;;;;;;;2.38;71.19;98874.92;120191;1151;104498;-72
2021/01/03 09:17:35;;;;;;;68.55;42.05;;;;;;;2.44;70.42;98869.42;119830;1151;104428;-73
2021/01/03 09:20:40;;;;;;;65.40;40.67;;;;;;;2.48;71.32;98868.34;119747;1151;104570;-72
2021/01/03 09:23:11;;;;;;;;;;;;;;;2.51;71.23;98881.34;119729;1151;104428;-70
2021/01/03 09:25:42;;;;;;;60.67;38.37;;;;;;;2.53;71.09;98876.88;119922;1151;104377;-72
2021/01/03 09:28:33;;;;;;;66.80;42.37;;;;;;;2.54;71.09;98872.50;119855;1151;104380;-72
2021/01/03 09:31:09;;;;;;;76.83;48.00;;;;;;;2.58;71.17;98871.45;119974;1151;104460;-71
2021/01/03 09:33:40;;;;;;;80.93;47.43;;;;;;;2.62;70.36;98885.28;120207;1150;104445;-72
2021/01/03 09:36:28;;;;;;;81.45;48.75;;;;;;;2.65;70.66;98886.00;120952;1150;103766;-72
2021/01/03 09:39:23;;;;;;;92.13;51.00;;;;;;;2.68;70.72;98883.23;120091;1150;104379;-70
2021/01/03 09:42:03;;;;;;;77.97;45.73;;;;;;;2.74;70.89;98876.88;119836;1150;104432;-71
2021/01/03 09:44:48;;;;;;;73.83;44.00;;;;;;;2.77;71.17;98884.63;119853;1149;104346;-72
2021/01/03 09:47:15;;;;;;;69.03;41.77;;;;;;;2.83;71.17;98883.50;120088;1150;104433;-71
2021/01/03 09:49:51;;;;;;;66.60;40.90;;;;;;;2.86;71.31;98885.12;120034;1151;104915;-71
2021/01/03 09:52:37;;;;;;;69.87;44.43;;;;;;;2.91;71.20;98891.03;120096;1151;104439;-70
2021/01/03 09:55:21;;;;;;;73.57;43.87;;;;;;;2.94;70.45;98893.53;120003;1151;104381;-70
2021/01/03 09:57:54;;;;;;;73.47;44.03;;;;;;;2.95;70.58;98895.23;120073;1150;104429;-72
2021/01/03 10:00:44;;;;;;;74.40;44.80;;;;;;;2.96;70.83;98889.93;120126;1151;104448;-70
2021/01/03 10:03:14;;;;;;;80.57;48.97;;;;;;;2.99;71.21;98883.67;120143;1151;104381;-72
2021/01/03 10:05:44;;;;;;;76.90;47.20;;;;;;;3.01;70.94;98883.63;120021;1151;104356;-68
2021/01/03 10:08:20;;;;;;;75.10;46.30;;;;;;;3.00;71.34;98874.87;120035;1151;104320;-69
2021/01/03 10:10:59;;;;;;;73.13;44.23;;;;;;;2.96;71.27;98873.30;119972;1150;104415;-68
2021/01/03 10:13:30;;;;;;;71.57;44.53;;;;;;;2.92;70.97;98871.72;119686;1151;104487;-70
2021/01/03 10:16:17;;;;;;;77.57;48.23;;;;;;;2.97;70.68;98880.26;119819;1151;104537;-72
2021/01/03 10:18:44;;;;;;;404.80;254.87;;;;;;;3.00;70.80;98881.91;120037;1151;104394;-69
2021/01/03 10:21:20;;;;;;;104.25;63.85;;;;;;;3.07;71.45;98888.58;120151;1150;104508;-71
2021/01/03 10:23:57;;;;;;;74.03;44.67;;;;;;;3.12;70.89;98884.84;119857;1151;104415;-71
2021/01/03 10:26:32;;;;;;;72.80;44.03;;;;;;;3.18;70.71;98888.95;119984;1151;104503;-71
2021/01/03 10:29:02;;;;;;;77.13;44.33;;;;;;;3.21;71.31;98880.94;119979;1151;104513;-71
2021/01/03 10:31:51;;;;;;;79.17;46.60;;;;;;;3.27;71.07;98885.91;120114;1150;104330;-73
2021/01/03 10:34:22;;;;;;;79.83;46.90;;;;;;;3.31;71.00;98888.41;120039;1151;104537;-70
2021/01/03 10:36:54;;;;;;;101.60;56.47;;;;;;;3.31;71.47;98883.98;120054;1151;104356;-70
2021/01/03 10:39:21;;;;;;;103.73;55.33;;;;;;;3.31;71.56;98883.98;120035;1151;104821;-70
2021/01/03 10:41:48;;;;;;;96.40;56.25;;;;;;;3.32;71.49;98890.11;120097;1151;104348;-70
2021/01/03 10:44:20;;;;;;;95.90;53.73;;;;;;;3.31;71.65;98889.24;119983;1151;104452;-71
2021/01/03 10:46:53;;;;;;;98.93;55.23;;;;;;;3.31;71.30;98891.03;120046;1151;104359;-70
2021/01/03 10:49:20;;;;;;;120.40;67.57;;;;;;;3.30;71.36;98876.19;119996;1151;104409;-71
2021/01/03 10:51:51;;;;;;;116.00;63.17;;;;;;;3.31;70.92;98875.26;120046;1150;104460;-70
2021/01/03 10:54:25;;;;;;;103.37;59.90;;;;;;;3.32;71.68;98869.08;119988;1151;104486;-71
2021/01/03 10:57:06;;;;;;;97.07;55.80;;;;;;;3.31;71.39;98868.20;120107;1151;104364;-71
2021/01/03 10:59:33;;;;;;;100.67;57.57;;;;;;;3.33;71.62;98866.37;120075;1151;104530;-70
2021/01/03 11:02:03;;;;;;;89.80;52.30;;;;;;;3.34;71.61;98860.18;120049;1150;104447;-70
2021/01/03 11:04:30;;;;;;;81.20;47.63;;;;;;;3.36;71.40;98854.88;120016;1151;104383;-71
2021/01/03 11:07:01;;;;;;;75.87;45.13;;;;;;;3.34;71.01;98843.57;120083;1151;104466;-68
2021/01/03 11:09:32;;;;;;;74.67;44.33;;;;;;;3.32;71.53;98848.05;120193;1150;104423;-70
2021/01/03 11:12:03;;;;;;;72.00;42.90;;;;;;;3.29;71.58;98843.77;120116;1151;104377;-71
2021/01/03 11:14:31;;;;;;;68.67;42.27;;;;;;;3.27;71.10;98837.73;119896;1151;104567;-70
2021/01/03 11:16:57;;;;;;;70.72;41.45;;;;;;;3.26;70.99;98836.05;119907;1151;104354;-71
2021/01/03 11:19:24;;;;;;;69.93;41.37;;;;;;;3.21;71.31;98836.25;119974;1150;104450;-70
2021/01/03 11:21:56;;;;;;;71.67;41.70;;;;;;;3.10;71.38;98846.39;119914;1151;105044;-70
2021/01/03 11:24:24;;;;;;;75.17;43.27;;;;;;;2.95;71.06;98847.94;120108;1150;104508;-71
2021/01/03 11:26:52;;;;;;;77.57;44.67;;;;;;;2.80;71.00;98855.61;119948;1151;104376;-71
2021/01/03 11:29:23;;;;;;;72.10;42.73;;;;;;;2.70;70.84;98840.30;119957;1151;104435;-72
2021/01/03 11:31:54;;;;;;;76.60;43.13;;;;;;;2.64;71.03;98837.05;120009;1150;104447;-72
2021/01/03 11:34:29;;;;;;;77.33;47.03;;;;;;;2.63;71.13;98816.09;120060;1151;104460;-73
2021/01/03 11:37:11;;;;;;;81.90;47.95;;;;;;;2.67;70.96;98820.29;119959;1151;104375;-72
2021/01/03 11:39:39;;;;;;;80.33;47.37;;;;;;;2.72;70.83;98820.94;119848;1150;104426;-72
2021/01/03 11:42:12;;;;;;;84.43;49.87;;;;;;;2.76;71.21;98821.64;120033;1150;104367;-70
2021/01/03 11:44:42;;;;;;;82.33;49.42;;;;;;;2.81;71.51;98817.05;119980;1151;104454;-70
2021/01/03 11:47:13;;;;;;;75.83;47.30;;;;;;;2.84;71.78;98822.16;120076;1151;104426;-70
2021/01/03 11:49:41;;;;;;;83.85;51.35;;;;;;;2.89;71.21;98825.44;119977;1150;104505;-71
2021/01/03 11:52:29;;;;;;;77.53;47.67;;;;;;;2.94;71.80;98817.33;119973;1150;104394;-71
2021/01/03 11:54:56;;;;;;;89.37;50.90;;;;;;;2.95;71.81;98819.91;120029;1150;104352;-72
2021/01/03 11:57:24;;;;;;;88.87;50.77;;;;;;;2.99;71.37;98820.61;119937;1151;104364;-71
2021/01/03 11:59:53;;;;;;;94.43;53.67;;;;;;;3.01;71.85;98831.91;119941;1151;104377;-70
2021/01/03 12:02:20;;;;;;;89.33;51.50;;;;;;;3.03;70.89;98831.85;119996;1151;104427;-70
2021/01/03 12:04:48;;;;;;;88.73;52.10;;;;;;;3.05;71.90;98825.59;119918;1150;104354;-70
2021/01/03 12:07:19;;;;;;;87.27;48.40;;;;;;;3.05;71.42;98822.96;119877;1151;104516;-70
2021/01/03 12:09:48;;;;;;;88.77;50.20;;;;;;;3.06;71.80;98823.80;119984;1150;104393;-70
2021/01/03 12:12:19;;;;;;;89.53;50.13;;;;;;;3.07;71.80;98821.11;119885;1151;104409;-71
2021/01/03 12:14:47;;;;;;;96.43;53.60;;;;;;;3.08;71.17;98820.20;119973;1150;104933;-71
2021/01/03 12:17:18;;;;;;;95.23;53.83;;;;;;;3.09;71.51;98811.39;120012;1150;104425;-73
2021/01/03 12:19:47;;;;;;;105.50;57.97;;;;;;;3.10;71.69;98806.97;120100;1151;104353;-73
2021/01/03 12:22:16;;;;;;;104.57;55.13;;;;;;;3.11;71.64;98806.05;120155;1150;104548;-72
2021/01/03 12:24:44;;;;;;;101.63;59.47;;;;;;;3.11;71.36;98795.53;120024;1151;104857;-73
2021/01/03 12:27:16;;;;;;;104.50;57.30;;;;;;;3.12;71.82;98798.11;120107;1151;104508;-71
2021/01/03 12:29:44;;;;;;;103.77;55.10;;;;;;;3.11;71.81;98788.52;120026;1151;104452;-72
2021/01/03 12:32:13;;;;;;;89.27;49.67;;;;;;;3.10;71.48;98791.20;120025;1151;104454;-72
2021/01/03 12:34:44;;;;;;;84.50;44.80;;;;;;;3.06;71.42;98797.52;120020;1150;104461;-71
2021/01/03 12:37:19;;;;;;;91.40;49.25;;;;;;;3.03;71.74;98801.16;119989;1150;104453;-73
2021/01/03 12:39:46;;;;;;;89.20;48.83;;;;;;;3.03;71.27;98802.95;119917;1151;104503;-71
2021/01/03 12:42:20;;;;;;;94.63;50.93;;;;;;;3.05;71.65;98803.73;119894;1151;104393;-69
2021/01/03 12:44:51;;;;;;;98.73;53.03;;;;;;;3.07;72.03;98807.98;119966;1151;104541;-71
2021/01/03 12:47:19;;;;;;;102.83;52.23;;;;;;;3.09;71.80;98807.89;119877;1151;104368;-73
2021/01/03 12:49:47;;;;;;;100.17;53.80;;;;;;;3.11;72.03;98813.93;120021;1148;104492;-71
2021/01/03 12:52:15;;;;;;;105.33;53.90;;;;;;;3.12;71.83;98815.64;119943;1150;104455;-72
2021/01/03 12:54:43;;;;;;;96.77;51.10;;;;;;;3.11;71.97;98806.05;119794;1151;104398;-71
2021/01/03 12:57:10;;;;;;;91.45;50.55;;;;;;;3.13;71.82;98809.45;119779;1151;104528;-70
2021/01/03 12:59:36;;;;;;;89.00;49.17;;;;;;;3.11;71.38;98803.42;119848;1151;104382;-72
2021/01/03 13:02:05;;;;;;;93.20;53.00;;;;;;;3.12;71.41;98810.38;119972;1151;104375;-69
2021/01/03 13:04:52;;;;;;;92.50;50.63;;;;;;;3.10;71.84;98801.71;119920;1151;104566;-70
2021/01/03 13:07:18;;;;;;;92.50;52.10;;;;;;;3.11;72.10;98804.29;119955;1151;104818;-69
2021/01/03 13:09:46;;;;;;;91.33;51.33;;;;;;;3.12;71.82;98799.87;120032;1150;104385;-69
2021/01/03 13:12:13;;;;;;;92.40;50.67;;;;;;;3.13;72.08;98805.07;119876;1151;104442;-71
2021/01/03 13:14:42;;;;;;;93.17;50.37;;;;;;;3.16;72.08;98800.59;120056;1150;104349;-70
2021/01/03 13:17:09;;;;;;;91.08;51.53;;;;;;;3.16;71.58;98805.85;120004;1149;104486;-69
2021/01/03 13:19:36;;;;;;;91.67;49.83;;;;;;;3.20;71.53;98810.05;120744;1150;104361;-71
2021/01/03 13:22:05;;;;;;;88.57;48.77;;;;;;;3.20;72.07;98804.79;119565;1151;104510;-68
2021/01/03 13:24:32;;;;;;;89.20;49.63;;;;;;;3.20;71.85;98804.79;119651;1151;104500;-71
2021/01/03 13:26:59;;;;;;;90.67;48.97;;;;;;;3.19;71.44;98805.71;119704;1150;104344;-69
2021/01/03 13:29:26;;;;;;;89.80;48.60;;;;;;;3.17;72.08;98795.25;119737;1150;104511;-68
2021/01/03 13:32:01;;;;;;;91.90;51.23;;;;;;;3.22;71.80;98800.31;119658;1151;104963;-69
2021/01/03 13:34:29;;;;;;;84.93;50.67;;;;;;;3.21;72.12;98809.96;120016;1150;104459;-71
2021/01/03 13:36:56;;;;;;;88.23;50.13;;;;;;;3.21;71.83;98809.96;119952;1150;104457;-71
2021/01/03 13:39:24;;;;;;;87.70;48.17;;;;;;;3.22;71.50;98805.57;119687;1151;104398;-69
2021/01/03 13:41:53;;;;;;;83.47;49.00;;;;;;;3.23;71.45;98804.65;119959;1151;104431;-69
2021/01/03 13:44:22;;;;;;;84.47;46.30;;;;;;;3.20;71.55;98807.41;119874;1151;104369;-69
2021/01/03 13:46:54;;;;;;;81.17;46.93;;;;;;;3.18;71.95;98811.89;120055;1151;104449;-70
2021/01/03 13:49:21;;;;;;;85.90;49.27;;;;;;;3.16;72.04;98806.69;119954;1151;104498;-70
2021/01/03 13:51:50;;;;;;;81.77;47.10;;;;;;;3.18;72.13;98812.73;120101;1150;104541;-66
2021/01/03 13:54:20;;;;;;;129.10;73.63;;;;;;;3.17;72.03;98818.07;120056;1151;104951;-68
2021/01/03 13:56:47;;;;;;;119.73;67.63;;;;;;;3.17;72.20;98813.66;120014;1150;104348;-70
2021/01/03 13:59:15;;;;;;;93.90;51.20;;;;;;;3.15;71.39;98804.14;120071;1150;104352;-70
2021/01/03 14:01:44;;;;;;;83.97;49.07;;;;;;;3.12;71.36;98808.62;120045;1151;104448;-68
2021/01/03 14:04:11;;;;;;;84.43;47.70;;;;;;;3.10;71.84;98799.95;120056;1151;104455;-71
2021/01/03 14:06:38;;;;;;;81.77;47.67;;;;;;;3.12;72.01;98810.38;120044;1150;104827;-69
2021/01/03 14:09:09;;;;;;;84.00;49.40;;;;;;;3.13;71.83;98819.97;119962;1151;104353;-68
2021/01/03 14:11:39;;;;;;;85.90;48.70;;;;;;;3.12;72.23;98815.64;120052;1151;104459;-69
2021/01/03 14:14:06;;;;;;;91.37;50.93;;;;;;;3.14;71.60;98819.05;120074;1151;104391;-68
2021/01/03 14:16:33;;;;;;;87.70;50.80;;;;;;;3.14;72.17;98808.53;120083;1150;104448;-69
2021/01/03 14:19:02;;;;;;;91.35;50.60;;;;;;;3.15;71.63;98817.29;120125;1151;104497;-68
2021/01/03 14:21:29;;;;;;;93.17;51.57;;;;;;;3.14;71.77;98803.28;119999;1151;104512;-70
2021/01/03 14:23:59;;;;;;;95.97;53.53;;;;;;;3.13;72.15;98802.44;120017;1151;104383;-70
2021/01/03 14:26:39;;;;;;;97.70;50.33;;;;;;;3.11;71.57;98806.91;120052;1151;104358;-68
2021/01/03 14:29:09;;;;;;;95.47;52.90;;;;;;;3.11;71.70;98801.66;120144;1150;104452;-70
2021/01/03 14:31:39;;;;;;;100.47;54.00;;;;;;;3.10;71.51;98799.08;120099;1151;104465;-72
2021/01/03 14:34:43;;;;;;;91.90;52.53;;;;;;;3.09;71.67;98800.88;120097;1151;104450;-69
2021/01/03 14:37:27;;;;;;;105.17;55.85;;;;;;;3.08;71.59;98804.42;119943;1150;104423;-68
2021/01/03 14:39:59;;;;;;;97.87;55.33;;;;;;;3.07;71.79;98807.11;120110;1150;104365;-70
2021/01/03 14:42:38;;;;;;;110.10;59.83;;;;;;;3.07;71.51;98804.48;120155;1150;104445;-68
2021/01/03 14:45:21;;;;;;;99.57;54.43;;;;;;;3.07;72.07;98799.22;120021;1150;104530;-69
2021/01/03 14:48:13;;;;;;;96.93;54.67;;;;;;;3.05;71.75;98796.69;120041;1150;104924;-70
2021/01/03 14:51:02;;;;;;;96.87;54.43;;;;;;;3.06;72.31;98792.27;120042;1151;104353;-67
2021/01/03 14:54:12;;;;;;;100.30;53.57;;;;;;;3.05;72.13;98788.80;120032;1151;104449;-71
2021/01/03 14:57:00;;;;;;;91.70;52.00;;;;;;;3.05;71.82;98786.17;120040;1151;104348;-69
2021/01/03 14:59:47;;;;;;;95.90;52.53;;;;;;;3.05;71.52;98783.55;120013;1151;104426;-68
2021/01/03 15:02:17;;;;;;;97.63;53.60;;;;;;;3.06;71.31;98789.64;120000;1151;104477;-69
2021/01/03 15:04:53;;;;;;;94.47;50.37;;;;;;;3.05;71.88;98796.69;120050;1151;104355;-67
2021/01/03 15:07:43;;;;;;;96.17;55.10;;;;;;;3.05;71.82;98801.94;119962;1150;104453;-68
2021/01/03 15:10:14;;;;;;;102.63;59.93;;;;;;;3.05;71.58;98803.73;120117;1150;104348;-69
2021/01/03 15:12:42;;;;;;;115.70;64.03;;;;;;;3.05;71.53;98806.36;120039;1151;104444;-69
2021/01/03 15:15:36;;;;;;;114.60;65.45;;;;;;;3.05;72.35;98803.73;119974;1151;104436;-69
2021/01/03 15:18:35;;;;;;;112.63;64.50;;;;;;;3.05;71.73;98801.10;120025;1150;104452;-70
2021/01/03 15:21:05;;;;;;;104.97;59.03;;;;;;;3.04;72.49;98799.40;120018;1151;104354;-68
2021/01/03 15:23:44;;;;;;;101.23;56.53;;;;;;;3.04;71.65;98802.02;120052;1151;104420;-69
2021/01/03 15:26:19;;;;;;;214.67;126.27;;;;;;;3.03;71.70;98806.41;120046;1151;104538;-69
2021/01/03 15:28:51;;;;;;;140.60;79.23;;;;;;;3.05;72.02;98811.61;120022;1151;104352;-70
2021/01/03 15:31:24;;;;;;;109.25;63.00;;;;;;;3.06;72.10;98802.77;120022;1151;104527;-70
2021/01/03 15:33:53;;;;;;;97.57;58.50;;;;;;;3.05;72.01;98815.08;119873;1151;104413;-69
2021/01/03 15:36:29;;;;;;;114.53;62.43;;;;;;;3.05;71.94;98811.61;120415;1150;104406;-70
2021/01/03 15:39:01;;;;;;;120.03;66.97;;;;;;;3.06;72.15;98815.91;120013;1151;104462;-69
2021/01/03 15:41:41;;;;;;;128.43;70.53;;;;;;;3.06;72.07;98819.41;119991;1151;104375;-68
2021/01/03 15:44:33;;;;;;;117.93;67.80;;;;;;;3.05;71.97;98825.59;120156;1150;104449;-70
2021/01/03 15:47:16;;;;;;;122.33;67.53;;;;;;;3.05;72.32;98820.33;120071;1151;104423;-69
2021/01/03 15:49:43;;;;;;;112.47;61.53;;;;;;;3.06;71.41;98824.67;120075;1150;104352;-70
2021/01/03 15:52:10;;;;;;;113.57;61.53;;;;;;;3.08;72.28;98822.82;120073;1151;104520;-70
2021/01/03 15:54:40;;;;;;;111.33;64.63;;;;;;;3.08;72.18;98819.33;120079;1150;104356;-69
2021/01/03 15:57:10;;;;;;;119.90;68.37;;;;;;;3.07;72.10;98813.23;120117;1151;104448;-68
2021/01/03 15:59:39;;;;;;;131.40;72.57;;;;;;;3.08;72.47;98817.56;120090;1151;104363;-68
2021/01/03 16:02:08;;;;;;;130.17;71.83;;;;;;;3.09;71.61;98813.15;120024;1151;104477;-69
2021/01/03 16:04:35;;;;;;;136.13;73.23;;;;;;;3.06;72.30;98811.53;120096;1150;104396;-67
2021/01/03 16:07:02;;;;;;;182.70;107.95;;;;;;;3.09;72.26;98808.76;119966;1151;104426;-67
2021/01/03 16:09:31;;;;;;;190.17;108.83;;;;;;;3.11;72.43;98820.05;120062;1151;104383;-67
2021/01/03 16:12:01;;;;;;;154.63;84.73;;;;;;;3.12;72.38;98813.01;120008;1151;104442;-68
2021/01/03 16:14:28;;;;;;;141.87;81.17;;;;;;;3.11;72.22;98814.80;120058;1151;104354;-70
2021/01/03 16:16:56;;;;;;;131.03;74.00;;;;;;;3.12;72.09;98813.01;120017;1151;104446;-69
2021/01/03 16:19:38;;;;;;;130.47;74.47;;;;;;;3.13;72.58;98814.72;120027;1151;104407;-69
2021/01/03 16:22:26;;;;;;;122.93;69.53;;;;;;;3.13;72.41;98807.70;120040;1150;104358;-69
2021/01/03 16:25:12;;;;;;;127.37;74.90;;;;;;;3.15;71.56;98812.87;120073;1150;104379;-68
2021/01/03 16:28:07;;;;;;;126.13;70.63;;;;;;;3.16;72.37;98806.69;120115;1151;104528;-69
2021/01/03 16:30:54;;;;;;;119.37;63.90;;;;;;;3.16;72.44;98803.22;120110;1150;104529;-68
2021/01/03 16:33:39;;;;;;;115.53;63.33;;;;;;;3.07;72.28;98807.98;120009;1151;104452;-69
2021/01/03 16:36:25;;;;;;;113.40;62.10;;;;;;;2.95;71.61;98803.27;120005;1150;104422;-69
2021/01/03 16:40:06;;;;;;;112.43;62.53;;;;;;;2.91;72.35;98805.20;120049;1151;104451;-70
2021/01/03 16:42:33;;;;;;;129.20;68.70;;;;;;;2.76;72.56;98806.75;119305;1154;104412;-69
2021/01/03 16:45:36;;;;;;;119.97;64.00;;;;;;;2.67;72.21;98807.99;119423;1153;104551;-71
2021/01/03 16:48:28;;;;;;;120.03;64.83;;;;;;;2.56;71.63;98807.64;120021;1151;104379;-69
2021/01/03 16:51:12;;;;;;;106.77;56.73;;;;;;;2.51;71.66;98799.11;120082;1150;104383;-70
2021/01/03 16:53:40;;;;;;;112.55;61.18;;;;;;;2.48;71.86;98805.33;120038;1151;104447;-69
2021/01/03 16:56:40;;;;;;;113.17;63.73;;;;;;;2.48;72.64;98802.70;120075;1151;104452;-69
2021/01/03 16:59:12;;;;;;;113.33;60.93;;;;;;;2.55;72.00;98791.94;120101;1150;104500;-69
2021/01/03 17:01:48;;;;;;;102.83;53.83;;;;;;;2.59;72.46;98801.39;120038;1151;104447;-69
2021/01/03 17:04:14;;;;;;;106.63;57.47;;;;;;;2.57;72.12;98798.84;120047;1151;104351;-70
2021/01/03 17:07:09;;;;;;;103.40;56.30;;;;;;;2.57;72.26;98796.22;120009;1151;104432;-72
2021/01/03 17:09:47;;;;;;;105.00;53.50;;;;;;;2.60;72.43;98790.83;120015;1151;104378;-71
2021/01/03 17:12:52;;;;;;;98.40;53.10;;;;;;;2.64;72.04;98791.53;120055;1151;104458;-73
2021/01/03 17:15:41;;;;;;;93.67;52.77;;;;;;;2.69;73.20;98784.31;120045;1151;104358;-70
2021/01/03 17:18:15;;;;;;;91.97;49.40;;;;;;;2.75;72.33;98772.66;120018;1150;104406;-70
2021/01/03 17:21:00;;;;;;;93.13;48.77;;;;;;;2.78;72.79;98773.39;120045;1149;104401;-70
2021/01/03 17:23:45;;;;;;;103.17;54.83;;;;;;;2.82;72.06;98767.08;120051;1151;104506;-71
2021/01/03 17:26:38;;;;;;;89.63;47.83;;;;;;;2.85;72.09;98768.70;120062;1151;104451;-72
2021/01/03 17:29:23;;;;;;;88.53;48.53;;;;;;;2.90;72.49;98777.22;120043;1151;104384;-69
2021/01/03 17:32:04;;;;;;;79.33;40.47;;;;;;;2.96;72.57;98776.95;119992;1151;104474;-70
2021/01/03 17:35:00;;;;;;;74.37;38.73;;;;;;;3.04;72.97;98770.49;120126;1151;104497;-69
2021/01/03 17:37:39;;;;;;;67.90;34.30;;;;;;;3.13;73.00;98772.66;120029;1151;104355;-68
2021/01/03 17:40:14;;;;;;;54.75;29.20;;;;;;;3.21;72.57;98773.16;120049;1151;104544;-69
2021/01/03 17:42:46;;;;;;;47.75;23.30;;;;;;;3.32;73.20;98772.64;120007;1151;104473;-69
2021/01/03 17:45:29;;;;;;;45.97;23.30;;;;;;;3.41;72.76;98780.09;120013;1151;104519;-70
2021/01/03 17:48:04;;;;;;;42.97;24.27;;;;;;;3.51;73.10;98788.39;120014;1151;104381;-70
2021/01/03 17:50:35;;;;;;;45.07;22.33;;;;;;;3.62;73.20;98787.02;120032;1151;104352;-70
2021/01/03 17:53:12;;;;;;;44.43;22.80;;;;;;;3.69;72.61;98785.80;120020;1151;104423;-67
2021/01/03 17:55:41;;;;;;;41.27;19.23;;;;;;;3.75;72.76;98798.66;119985;1151;104435;-70
2021/01/03 17:58:10;;;;;;;37.37;20.37;;;;;;;3.80;73.07;98791.39;120104;1151;104382;-69
2021/01/03 18:00:37;;;;;;;43.70;19.83;;;;;;;3.83;72.49;98782.48;120147;1151;104465;-68
2021/01/03 18:03:17;;;;;;;40.70;20.20;;;;;;;3.87;73.02;98786.67;120143;1151;104358;-69
2021/01/03 18:05:46;;;;;;;39.87;20.10;;;;;;;3.88;72.96;98780.48;120100;1151;104422;-69